»·PEaware :: N8979T L88-L52

N8979T :: L88-L52

FLIGHT INFORMATION

Flight Status: Arrived
Operator: Privately registered:
United States
More flights under this callsign
Pilot: Brett J. (1348)
Aircraft: PIPER PA-18 SUPER CUB
(PA18)
More flights by this aircraft type
Origin: L88 New Cuyama
United States
Destination: L52 Oceano Co
United States
More flights between these airports :: More routes between these airports
Route:
File this flight plan on PilotEdge
Remarks:
Altitude:
(Current/Filed)
6,500ft
Speed:
(Current/Filed)
120kts
Departed: 02-Feb-19 04:51 PM
Arrived: 02-Feb-19 05:25 PM
Distance/Time
Traveled:
118nm/0:34
Distance/Time
To Go:
Arrived

Flight Plot

Page will automatically refresh every two minutes.


Map Options




Map Legend


Flown Route
Filed Route
Departure Airport
Arrival Airport
Navaid (VOR, NDB)
Fix

Horizontal Profiles

Position Reports

Time Latitude Longitude Heading Altitude Ground
Speed
02-Feb-19 16:48 34.942695 -119.690582 286 2153ft 0kts
02-Feb-19 16:49 34.942010 -119.690663 116 2154ft 23kts
02-Feb-19 16:50 34.947607 -119.686647 292 2799ft 110kts
02-Feb-19 16:51 34.954187 -119.718743 211 3461ft 84kts
02-Feb-19 16:52 34.954169 -119.727664 199 3598ft 96kts
02-Feb-19 16:53 34.938614 -119.703171 111 3940ft 99kts
02-Feb-19 16:54 34.930509 -119.670805 103 4509ft 98kts
02-Feb-19 16:55 34.944559 -119.689077 304 4829ft 102kts
02-Feb-19 16:56 34.960112 -119.717764 310 5317ft 100kts
02-Feb-19 16:57 34.974129 -119.748449 292 5626ft 111kts
02-Feb-19 16:58 34.983700 -119.783776 292 5785ft 119kts
02-Feb-19 16:59 34.996071 -119.822632 292 5480ft 127kts
02-Feb-19 17:00 35.011374 -119.858810 295 5597ft 114kts
02-Feb-19 17:01 35.018989 -119.896798 276 5935ft 118kts
02-Feb-19 17:02 35.023068 -119.936874 277 6359ft 122kts
02-Feb-19 17:03 35.030064 -119.978042 289 6471ft 129kts
02-Feb-19 17:04 35.041410 -120.019709 284 6426ft 133kts
02-Feb-19 17:05 35.047490 -120.062126 277 6628ft 124kts
02-Feb-19 17:06 35.050235 -120.107182 278 6403ft 127kts
02-Feb-19 17:07 35.059171 -120.147950 305 6592ft 125kts
02-Feb-19 17:08 35.076969 -120.185005 282 6588ft 126kts
02-Feb-19 17:09 35.078089 -120.227098 270 6811ft 123kts
02-Feb-19 17:10 35.068982 -120.267252 276 6689ft 137kts
02-Feb-19 17:11 35.076027 -120.309671 279 6789ft 129kts
02-Feb-19 17:12 35.084883 -120.356209 292 5739ft 143kts
02-Feb-19 17:13 35.099197 -120.396892 302 4570ft 120kts
02-Feb-19 17:14 35.110407 -120.431424 288 3002ft 97kts
02-Feb-19 17:15 35.113309 -120.459831 274 2514ft 72kts
02-Feb-19 17:16 35.117544 -120.483060 293 2601ft 72kts
02-Feb-19 17:17 35.127324 -120.507399 298 2753ft 80kts
02-Feb-19 17:18 35.134217 -120.533883 279 2257ft 78kts
02-Feb-19 17:19 35.134602 -120.561237 272 1773ft 81kts
02-Feb-19 17:20 35.137239 -120.587286 285 1237ft 77kts
02-Feb-19 17:21 35.140864 -120.613296 277 1058ft 78kts
02-Feb-19 17:22 35.129794 -120.634041 205 915ft 82kts
02-Feb-19 17:23 35.110678 -120.636529 151 336ft 57kts
02-Feb-19 17:24 35.101922 -120.623123 125 15ft 33kts
02-Feb-19 17:25 35.099831 -120.620244 303 16ft 9kts
02-Feb-19 17:26 35.101972 -120.624153 303 15ft 15kts
02-Feb-19 17:27 35.103553 -120.624905 220 16ft 0kts
02-Feb-19 17:28 35.103553 -120.624905 220 16ft 0kts
02-Feb-19 17:29 35.103553 -120.624905 220 16ft 0kts
02-Feb-19 17:30 35.103553 -120.624905 220 16ft 0kts
02-Feb-19 17:31 35.103553 -120.624905 220 16ft 0kts
02-Feb-19 17:32 35.103553 -120.624905 220 16ft 0kts
02-Feb-19 17:33 35.103553 -120.624905 220 16ft 0kts
02-Feb-19 17:34 35.103553 -120.624905 220 16ft 0kts
02-Feb-19 17:35 33.674711 -117.871625 217 60ft 0kts
02-Feb-19 17:36 33.674711 -117.871626 216 60ft 0kts
02-Feb-19 17:37 33.674711 -117.871626 216 60ft 0kts
02-Feb-19 17:38 33.674711 -117.871626 216 60ft 0kts
02-Feb-19 17:39 33.674711 -117.871626 216 60ft 0kts

Navigation Log

Ident Type
Flight plan parsing failed, navigation log unavailable